createdAt,value
2022-08-26T00:01:10.050Z,1014.5
2022-08-26T00:04:10.422Z,1014.5
2022-08-26T00:07:10.577Z,1014.5
2022-08-26T00:10:05.721Z,1014.5
2022-08-26T00:13:10.987Z,1014.5
2022-08-26T00:16:07.900Z,1014.5
2022-08-26T00:19:08.188Z,1014.5
2022-08-26T00:22:06.683Z,1014.5
2022-08-26T00:25:09.219Z,1014.5
2022-08-26T00:28:07.533Z,1014.5
2022-08-26T00:31:07.419Z,1014.5
2022-08-26T00:34:09.773Z,1014.5
2022-08-26T00:37:16.047Z,1014.4
2022-08-26T00:40:11.447Z,1014.4
2022-08-26T00:43:10.005Z,1014.4
2022-08-26T00:46:08.750Z,1014.4
2022-08-26T00:49:12.595Z,1014.4
2022-08-26T00:52:13.081Z,1014.4
2022-08-26T00:55:09.262Z,1014.4
2022-08-26T00:58:09.512Z,1014.4
2022-08-26T01:01:09.910Z,1014.4
2022-08-26T01:04:09.983Z,1014.4
2022-08-26T01:07:10.534Z,1014.4
2022-08-26T01:10:10.963Z,1014.4
2022-08-26T01:13:10.684Z,1014.3
2022-08-26T01:16:11.293Z,1014.3
2022-08-26T01:19:06.274Z,1014.3
2022-08-26T01:22:11.954Z,1014.3
2022-08-26T01:25:07.513Z,1014.3
2022-08-26T01:28:06.840Z,1014.3
2022-08-26T01:31:07.593Z,1014.3
2022-08-26T01:34:09.203Z,1014.3
2022-08-26T01:37:07.844Z,1014.3
2022-08-26T01:40:07.980Z,1014.4
2022-08-26T01:43:09.598Z,1014.4
2022-08-26T01:46:10.385Z,1014.4
2022-08-26T01:49:08.622Z,1014.4
2022-08-26T01:52:10.932Z,1014.4
2022-08-26T01:55:08.990Z,1014.4
2022-08-26T01:58:09.455Z,1014.4
2022-08-26T02:01:11.758Z,1014.4
2022-08-26T02:04:10.422Z,1014.4
2022-08-26T02:07:09.914Z,1014.4
2022-08-26T02:10:10.148Z,1014.4
2022-08-26T02:13:10.377Z,1014.4
2022-08-26T02:16:11.135Z,1014.3
2022-08-26T02:19:17.525Z,1014.3
2022-08-26T02:22:06.078Z,1014.3
2022-08-26T02:25:11.338Z,1014.3
2022-08-26T02:28:06.679Z,1014.3
2022-08-26T02:31:08.185Z,1014.3
2022-08-26T02:34:07.001Z,1014.3
2022-08-26T02:37:07.244Z,1014.2
2022-08-26T02:40:07.725Z,1014.2
2022-08-26T02:43:08.929Z,1014.2
2022-08-26T02:46:08.822Z,1014.2
2022-08-26T02:49:08.195Z,1014.1
2022-08-26T02:52:08.916Z,1014.1
2022-08-26T02:55:08.813Z,1014.1
2022-08-26T02:58:10.178Z,1014.1
2022-08-26T03:01:09.315Z,1014.1
2022-08-26T03:04:10.356Z,1014.1
2022-08-26T03:07:09.635Z,1014.1
2022-08-26T03:10:09.851Z,1014.2
2022-08-26T03:13:10.123Z,1014.2
2022-08-26T03:16:10.489Z,1014.2
2022-08-26T03:19:10.568Z,1014.1
2022-08-26T03:22:11.103Z,1014.1
2022-08-26T03:25:11.261Z,1014.1
2022-08-26T03:28:11.271Z,1014.1
2022-08-26T03:31:06.659Z,1014
2022-08-26T03:34:06.733Z,1014
2022-08-26T03:37:06.974Z,1014
2022-08-26T03:40:07.331Z,1013.9
2022-08-26T03:43:10.146Z,1013.9
2022-08-26T03:46:07.791Z,1013.9
2022-08-26T03:49:07.906Z,1013.9
2022-08-26T03:52:08.136Z,1013.9
2022-08-26T03:55:08.424Z,1013.9
2022-08-26T03:58:08.632Z,1013.9
2022-08-26T04:01:08.845Z,1013.9
2022-08-26T04:04:09.099Z,1013.9
2022-08-26T04:07:09.333Z,1013.9
2022-08-26T04:10:09.942Z,1013.9
2022-08-26T04:13:10.266Z,1013.9
2022-08-26T04:16:10.719Z,1013.8
2022-08-26T04:19:10.507Z,1013.8
2022-08-26T04:22:10.491Z,1013.8
2022-08-26T04:25:10.734Z,1013.8
2022-08-26T04:28:05.928Z,1013.8
2022-08-26T04:31:11.403Z,1013.8
2022-08-26T04:34:06.413Z,1013.8
2022-08-26T04:37:07.220Z,1013.7
2022-08-26T04:40:06.960Z,1013.7
2022-08-26T04:43:12.143Z,1013.7
2022-08-26T04:46:07.465Z,1013.7
2022-08-26T04:49:07.591Z,1013.7
2022-08-26T04:52:07.870Z,1013.7
2022-08-26T04:55:08.891Z,1013.7
2022-08-26T04:58:10.638Z,1013.7
2022-08-26T05:01:08.684Z,1013.7
2022-08-26T05:04:08.929Z,1013.7
2022-08-26T05:07:09.826Z,1013.7
2022-08-26T05:10:10.952Z,1013.7
2022-08-26T05:13:15.136Z,1013.7
2022-08-26T05:16:11.944Z,1013.7
2022-08-26T05:19:10.615Z,1013.7
2022-08-26T05:22:13.424Z,1013.7
2022-08-26T05:25:10.435Z,1013.7
2022-08-26T05:28:10.666Z,1013.7
2022-08-26T05:31:06.050Z,1013.7
2022-08-26T05:34:11.146Z,1013.7
2022-08-26T05:37:06.359Z,1013.7
2022-08-26T05:40:06.758Z,1013.7
2022-08-26T05:43:09.308Z,1013.7
2022-08-26T05:46:07.255Z,1013.7
2022-08-26T05:49:13.139Z,1013.7
2022-08-26T05:52:10.456Z,1013.7
2022-08-26T05:55:07.914Z,1013.8
2022-08-26T05:58:08.016Z,1013.8
2022-08-26T06:01:09.649Z,1013.8
2022-08-26T06:04:08.816Z,1013.8
2022-08-26T06:07:13.393Z,1013.9
2022-08-26T06:10:33.060Z,1013.9
2022-08-26T06:13:12.437Z,1013.9
2022-08-26T06:16:09.606Z,1013.9
2022-08-26T06:19:11.762Z,1013.9
2022-08-26T06:22:09.959Z,1013.9
2022-08-26T06:25:10.366Z,1013.9
2022-08-26T06:28:13.738Z,1013.9
2022-08-26T06:31:11.150Z,1013.9
2022-08-26T06:34:11.215Z,1013.9
2022-08-26T06:37:11.644Z,1013.8
2022-08-26T06:40:11.812Z,1013.8
2022-08-26T06:43:07.139Z,1013.8
2022-08-26T06:46:07.549Z,1013.8
2022-08-26T06:49:08.290Z,1013.7
2022-08-26T06:52:08.059Z,1013.7
2022-08-26T06:55:07.505Z,1013.7
2022-08-26T06:58:07.726Z,1013.7
2022-08-26T07:01:11.904Z,1013.8
2022-08-26T07:04:10.843Z,1013.8
2022-08-26T07:07:09.886Z,1013.8
2022-08-26T07:10:08.666Z,1013.8
2022-08-26T07:13:09.293Z,1013.8
2022-08-26T07:16:09.831Z,1013.9
2022-08-26T07:19:11.783Z,1013.9
2022-08-26T07:22:10.128Z,1013.9
2022-08-26T07:25:09.837Z,1013.9
2022-08-26T07:28:10.926Z,1013.9
2022-08-26T07:31:15.755Z,1013.9
2022-08-26T07:34:10.530Z,1013.9
2022-08-26T07:37:10.781Z,1013.9
2022-08-26T07:40:11.946Z,1013.9
2022-08-26T07:43:06.409Z,1013.9
2022-08-26T07:46:06.463Z,1013.9
2022-08-26T07:49:06.905Z,1013.9
2022-08-26T07:52:06.902Z,1013.9
2022-08-26T07:55:07.153Z,1013.9
2022-08-26T07:58:07.410Z,1013.9
2022-08-26T08:01:07.776Z,1013.9
2022-08-26T08:04:10.397Z,1014
2022-08-26T08:07:12.153Z,1014
2022-08-26T08:10:11.839Z,1014
2022-08-26T08:13:10.104Z,1014
2022-08-26T08:16:12.966Z,1014
2022-08-26T08:19:09.094Z,1014
2022-08-26T08:22:19.972Z,1014
2022-08-26T08:25:11.592Z,1014
2022-08-26T08:28:10.953Z,1014
2022-08-26T08:31:11.518Z,1014
2022-08-26T08:34:10.235Z,1014
2022-08-26T08:37:11.133Z,1014
2022-08-26T08:40:11.201Z,1014
2022-08-26T08:43:11.115Z,1014
2022-08-26T08:46:11.689Z,1014.1
2022-08-26T08:49:07.385Z,1014.1
2022-08-26T08:52:06.626Z,1014.1
2022-08-26T08:55:13.658Z,1014.1
2022-08-26T08:58:08.525Z,1014.1
2022-08-26T09:01:10.063Z,1014.1
2022-08-26T09:04:08.044Z,1014
2022-08-26T09:07:08.161Z,1014
2022-08-26T09:10:08.905Z,1014
2022-08-26T09:13:08.707Z,1014
2022-08-26T09:16:10.360Z,1014
2022-08-26T09:19:09.055Z,1013.9
2022-08-26T09:22:10.065Z,1013.9
2022-08-26T09:25:11.397Z,1013.9
2022-08-26T09:28:10.068Z,1013.8
2022-08-26T09:31:14.904Z,1013.8
2022-08-26T09:34:11.909Z,1013.8
2022-08-26T09:37:10.208Z,1013.8
2022-08-26T09:40:10.498Z,1013.8
2022-08-26T09:43:10.969Z,1013.8
2022-08-26T09:46:11.238Z,1013.8
2022-08-26T09:49:11.167Z,1013.8
2022-08-26T09:52:12.197Z,1013.8
2022-08-26T09:55:07.191Z,1013.8
2022-08-26T09:58:09.480Z,1013.8
2022-08-26T10:01:12.269Z,1013.8
2022-08-26T10:04:07.480Z,1013.8
2022-08-26T10:07:07.516Z,1013.8
2022-08-26T10:10:08.378Z,1013.7
2022-08-26T10:13:08.446Z,1013.7
2022-08-26T10:16:11.183Z,1013.7
2022-08-26T10:19:09.008Z,1013.7
2022-08-26T10:22:10.172Z,1013.7
2022-08-26T10:25:09.794Z,1013.6
2022-08-26T10:28:09.637Z,1013.6
2022-08-26T10:31:09.459Z,1013.5
2022-08-26T10:34:13.918Z,1013.4
2022-08-26T10:37:16.644Z,1013.4
2022-08-26T10:40:10.301Z,1013.4
2022-08-26T10:43:11.702Z,1013.3
2022-08-26T10:46:12.135Z,1013.3
2022-08-26T10:49:11.162Z,1013.3
2022-08-26T10:52:16.800Z,1013.3
2022-08-26T10:55:08.614Z,1013.2
2022-08-26T10:58:12.271Z,1013.2
2022-08-26T11:01:11.843Z,1013.2
2022-08-26T11:04:07.168Z,1013.2
2022-08-26T11:07:07.211Z,1013.2
2022-08-26T11:10:07.436Z,1013.1
2022-08-26T11:13:08.564Z,1013.1
2022-08-26T11:16:07.960Z,1013.1
2022-08-26T11:19:08.137Z,1013
2022-08-26T11:22:08.367Z,1013
2022-08-26T11:25:11.747Z,1012.9
2022-08-26T11:28:10.331Z,1012.9
2022-08-26T11:31:09.169Z,1012.9
2022-08-26T11:34:11.206Z,1012.8
2022-08-26T11:37:10.799Z,1012.8
2022-08-26T11:40:10.651Z,1012.7
2022-08-26T11:43:10.052Z,1012.7
2022-08-26T11:46:10.591Z,1012.6
2022-08-26T11:49:10.481Z,1012.6
2022-08-26T11:52:10.705Z,1012.5
2022-08-26T11:55:10.957Z,1012.5
2022-08-26T11:58:07.840Z,1012.4
2022-08-26T12:01:17.190Z,1012.4
2022-08-26T12:04:07.007Z,1012.3
2022-08-26T12:07:08.840Z,1012.3
2022-08-26T12:10:08.124Z,1012.2
2022-08-26T12:13:07.345Z,1012.2
2022-08-26T12:16:07.903Z,1012.2
2022-08-26T12:19:08.658Z,1012.2
2022-08-26T12:22:07.993Z,1012.1
2022-08-26T12:25:08.263Z,1012.1
2022-08-26T12:28:08.708Z,1012.1
2022-08-26T12:31:09.289Z,1012.1
2022-08-26T12:34:18.536Z,1012.1
2022-08-26T12:37:09.475Z,1012.1
2022-08-26T12:40:09.611Z,1012.1
2022-08-26T12:43:09.720Z,1012.1
2022-08-26T12:46:09.938Z,1012
2022-08-26T12:49:10.172Z,1012
2022-08-26T12:52:10.404Z,1012
2022-08-26T12:55:10.664Z,1012
2022-08-26T12:58:10.878Z,1012
2022-08-26T13:01:11.482Z,1011.9
2022-08-26T13:04:06.299Z,1011.9
2022-08-26T13:07:11.571Z,1011.9
2022-08-26T13:10:06.758Z,1011.9
2022-08-26T13:13:07.629Z,1011.8
2022-08-26T13:16:07.475Z,1011.8
2022-08-26T13:19:10.858Z,1011.8
2022-08-26T13:22:07.700Z,1011.8
2022-08-26T13:25:07.970Z,1011.7
2022-08-26T13:28:08.159Z,1011.7
2022-08-26T13:31:08.555Z,1011.7
2022-08-26T13:34:08.602Z,1011.7
2022-08-26T13:37:08.887Z,1011.7
2022-08-26T13:40:09.445Z,1011.7
2022-08-26T13:43:09.813Z,1011.7
2022-08-26T13:46:09.688Z,1011.6
2022-08-26T13:49:09.813Z,1011.6
2022-08-26T13:52:10.044Z,1011.6
2022-08-26T13:55:10.285Z,1011.6
2022-08-26T13:58:10.978Z,1011.7
2022-08-26T14:01:10.885Z,1011.7
2022-08-26T14:04:10.975Z,1011.6
2022-08-26T14:07:11.211Z,1011.6
2022-08-26T14:10:11.432Z,1011.7
2022-08-26T14:13:08.076Z,1011.7
2022-08-26T14:16:07.036Z,1011.7
2022-08-26T14:19:07.112Z,1011.7
2022-08-26T14:22:07.344Z,1011.7
2022-08-26T14:25:07.574Z,1011.8
2022-08-26T14:28:07.790Z,1011.8
2022-08-26T14:31:08.239Z,1011.8
2022-08-26T14:34:08.280Z,1011.8
2022-08-26T14:37:15.410Z,1011.9
2022-08-26T14:40:08.965Z,1011.8
2022-08-26T14:43:09.242Z,1011.8
2022-08-26T14:46:09.317Z,1011.8
2022-08-26T14:49:11.178Z,1011.7
2022-08-26T14:52:09.684Z,1011.7
2022-08-26T14:55:09.937Z,1011.6
2022-08-26T14:58:10.721Z,1011.6
2022-08-26T15:01:10.370Z,1011.6
2022-08-26T15:04:10.585Z,1011.6
2022-08-26T15:07:13.060Z,1011.6
2022-08-26T15:10:11.069Z,1011.6
2022-08-26T15:13:11.301Z,1011.6
2022-08-26T15:16:11.792Z,1011.7
2022-08-26T15:19:06.744Z,1011.7
2022-08-26T15:22:06.960Z,1011.7
2022-08-26T15:25:07.181Z,1011.7
2022-08-26T15:28:07.438Z,1011.7
2022-08-26T15:31:12.807Z,1011.7
2022-08-26T15:34:07.870Z,1011.8
2022-08-26T15:37:08.130Z,1011.8
2022-08-26T15:40:22.278Z,1011.8
2022-08-26T15:43:29.036Z,1011.9
2022-08-26T15:46:08.927Z,1011.9
2022-08-26T15:49:18.399Z,1012
2022-08-26T15:52:09.289Z,1012.1
2022-08-26T15:55:09.575Z,1012.1
2022-08-26T15:58:10.034Z,1012.1
2022-08-26T16:01:09.959Z,1012.1
2022-08-26T16:04:10.191Z,1012.1
2022-08-26T16:07:10.444Z,1012.1
2022-08-26T16:10:10.673Z,1012
2022-08-26T16:13:15.093Z,1012
2022-08-26T16:16:06.223Z,1012
2022-08-26T16:19:07.952Z,1011.9
2022-08-26T16:22:06.564Z,1011.9
2022-08-26T16:25:06.819Z,1011.9
2022-08-26T16:28:11.918Z,1011.9
2022-08-26T16:31:07.434Z,1011.9
2022-08-26T16:34:07.463Z,1011.9
2022-08-26T16:37:07.746Z,1012
2022-08-26T16:40:08.086Z,1012
2022-08-26T16:43:15.487Z,1012
2022-08-26T16:46:08.592Z,1012.1
2022-08-26T16:49:08.688Z,1012.1
2022-08-26T16:52:08.927Z,1012.1
2022-08-26T16:55:09.165Z,1012.1
2022-08-26T16:58:09.894Z,1012.1
2022-08-26T17:01:09.861Z,1012.1
2022-08-26T17:04:09.905Z,1012.1
2022-08-26T17:07:10.095Z,1012.1
2022-08-26T17:10:10.289Z,1012.2
2022-08-26T17:13:16.193Z,1012.2
2022-08-26T17:16:10.931Z,1012.3
2022-08-26T17:19:11.042Z,1012.3
2022-08-26T17:22:11.237Z,1012.4
2022-08-26T17:25:11.478Z,1012.4
2022-08-26T17:28:13.836Z,1012.5
2022-08-26T17:31:12.079Z,1012.5
2022-08-26T17:34:07.248Z,1012.5
2022-08-26T17:37:07.340Z,1012.5
2022-08-26T17:40:07.738Z,1012.5
2022-08-26T17:43:12.663Z,1012.5
2022-08-26T17:46:08.331Z,1012.5
2022-08-26T17:49:08.272Z,1012.5
2022-08-26T17:52:11.799Z,1012.5
2022-08-26T17:55:08.763Z,1012.5
2022-08-26T17:58:10.327Z,1012.5
2022-08-26T18:01:14.376Z,1012.5
2022-08-26T18:04:09.674Z,1012.5
2022-08-26T18:07:09.716Z,1012.5
2022-08-26T18:10:13.697Z,1012.5
2022-08-26T18:13:10.803Z,1012.5
2022-08-26T18:16:10.578Z,1012.5
2022-08-26T18:19:10.630Z,1012.4
2022-08-26T18:22:15.963Z,1012.4
2022-08-26T18:25:11.081Z,1012.4
2022-08-26T18:28:11.292Z,1012.4
2022-08-26T18:31:11.698Z,1012.4
2022-08-26T18:34:06.750Z,1012.3
2022-08-26T18:37:14.359Z,1012.3
2022-08-26T18:40:07.410Z,1012.3
2022-08-26T18:43:07.463Z,1012.3
2022-08-26T18:46:07.788Z,1012.2
2022-08-26T18:49:07.903Z,1012.2
2022-08-26T18:52:08.149Z,1012.2
2022-08-26T18:55:08.388Z,1012.2
2022-08-26T18:58:11.292Z,1012.2
2022-08-26T19:01:09.054Z,1012.2
2022-08-26T19:04:15.704Z,1012.2
2022-08-26T19:07:09.392Z,1012.3
2022-08-26T19:10:09.800Z,1012.3
2022-08-26T19:13:09.934Z,1012.4
2022-08-26T19:16:10.018Z,1012.5
2022-08-26T19:19:10.246Z,1012.6
2022-08-26T19:22:10.479Z,1012.6
2022-08-26T19:25:10.711Z,1012.6
2022-08-26T19:28:10.931Z,1012.7
2022-08-26T19:31:11.382Z,1012.7
2022-08-26T19:34:06.387Z,1012.7
2022-08-26T19:37:06.631Z,1012.7
2022-08-26T19:40:06.999Z,1012.7
2022-08-26T19:43:07.163Z,1012.7
2022-08-26T19:46:07.487Z,1012.7
2022-08-26T19:49:07.578Z,1012.7
2022-08-26T19:52:07.816Z,1012.7
2022-08-26T19:55:08.034Z,1012.7
2022-08-26T19:58:08.396Z,1012.7
2022-08-26T20:01:08.667Z,1012.7
2022-08-26T20:04:08.764Z,1012.7
2022-08-26T20:07:08.985Z,1012.7
2022-08-26T20:10:09.201Z,1012.8
2022-08-26T20:13:09.502Z,1012.8
2022-08-26T20:16:09.731Z,1012.8
2022-08-26T20:19:09.929Z,1012.8
2022-08-26T20:22:10.387Z,1012.8
2022-08-26T20:25:10.479Z,1012.9
2022-08-26T20:28:11.319Z,1012.9
2022-08-26T20:31:12.661Z,1012.9
2022-08-26T20:34:11.138Z,1012.9
2022-08-26T20:37:06.352Z,1012.9
2022-08-26T20:40:06.765Z,1012.8
2022-08-26T20:43:06.813Z,1012.8
2022-08-26T20:46:18.935Z,1012.8
2022-08-26T20:49:07.743Z,1012.8
2022-08-26T20:52:07.541Z,1012.7
2022-08-26T20:55:07.751Z,1012.7
2022-08-26T20:58:07.986Z,1012.7
2022-08-26T21:01:13.437Z,1012.7
2022-08-26T21:04:08.507Z,1012.7
2022-08-26T21:07:08.717Z,1012.7
2022-08-26T21:10:08.933Z,1012.7
2022-08-26T21:13:09.174Z,1012.8
2022-08-26T21:16:09.508Z,1012.8
2022-08-26T21:19:14.717Z,1012.8
2022-08-26T21:22:09.865Z,1012.8
2022-08-26T21:25:10.125Z,1012.8
2022-08-26T21:28:10.730Z,1012.8
2022-08-26T21:31:10.628Z,1012.9
2022-08-26T21:34:10.809Z,1012.9
2022-08-26T21:37:17.185Z,1012.9
2022-08-26T21:40:11.452Z,1012.9
2022-08-26T21:43:33.690Z,1012.9
2022-08-26T21:46:06.862Z,1012.9
2022-08-26T21:49:06.939Z,1012.9
2022-08-26T21:52:07.167Z,1012.9
2022-08-26T21:55:09.286Z,1012.9
2022-08-26T21:58:07.627Z,1012.9
2022-08-26T22:01:08.080Z,1012.9
2022-08-26T22:04:08.121Z,1012.9
2022-08-26T22:07:08.363Z,1012.9
2022-08-26T22:10:08.602Z,1012.9
2022-08-26T22:13:08.856Z,1012.9
2022-08-26T22:16:09.168Z,1012.9
2022-08-26T22:19:17.353Z,1012.9
2022-08-26T22:22:09.532Z,1012.9
2022-08-26T22:25:09.795Z,1012.9
2022-08-26T22:28:10.344Z,1012.9
2022-08-26T22:31:10.255Z,1012.9
2022-08-26T22:34:10.455Z,1012.9
2022-08-26T22:37:10.694Z,1012.9
2022-08-26T22:40:11.107Z,1012.9
2022-08-26T22:43:11.156Z,1012.9
2022-08-26T22:46:11.513Z,1012.9
2022-08-26T22:49:11.633Z,1012.9
2022-08-26T22:52:06.860Z,1012.9
2022-08-26T22:55:07.054Z,1012.9
2022-08-26T22:58:07.272Z,1012.9
2022-08-26T23:01:07.726Z,1012.9
2022-08-26T23:04:07.751Z,1012.8
2022-08-26T23:07:07.984Z,1012.8
2022-08-26T23:10:08.241Z,1012.8
2022-08-26T23:13:08.457Z,1012.8
2022-08-26T23:16:08.813Z,1012.8
2022-08-26T23:19:08.917Z,1012.8
2022-08-26T23:22:09.174Z,1012.8
2022-08-26T23:25:10.196Z,1012.8
2022-08-26T23:28:09.935Z,1012.8
2022-08-26T23:31:09.865Z,1012.8
2022-08-26T23:34:10.304Z,1012.8
2022-08-26T23:37:10.315Z,1012.8
2022-08-26T23:40:10.790Z,1012.7
2022-08-26T23:43:10.781Z,1012.7
2022-08-26T23:46:06.111Z,1012.7
2022-08-26T23:49:06.277Z,1012.7
2022-08-26T23:52:06.447Z,1012.7
2022-08-26T23:55:06.708Z,1012.7
2022-08-26T23:58:12.289Z,1012.7
